createdAt,value
2022-09-23T00:01:19.181Z,9
2022-09-23T00:07:02.758Z,8.6
2022-09-23T00:12:46.232Z,7.6
2022-09-23T00:18:29.719Z,7.4
2022-09-23T00:24:12.814Z,6.6
2022-09-23T00:29:56.207Z,10
2022-09-23T00:35:39.334Z,8.4
2022-09-23T00:41:22.806Z,7.1
2022-09-23T00:47:07.040Z,7.4
2022-09-23T00:52:51.323Z,7.2
2022-09-23T00:58:36.439Z,6.6
2022-09-23T01:04:19.697Z,7.8
2022-09-23T01:10:03.294Z,7.2
2022-09-23T01:15:49.698Z,6.7
2022-09-23T01:21:40.030Z,7.5
2022-09-23T01:27:30.076Z,6.1
2022-09-23T01:33:17.008Z,7.7
2022-09-23T01:39:03.424Z,6.4
2022-09-23T01:44:48.913Z,5.8
2022-09-23T01:50:34.472Z,7.1
2022-09-23T01:56:20.219Z,5.2
2022-09-23T02:02:06.517Z,5.8
2022-09-23T02:07:53.243Z,5.6
2022-09-23T02:13:39.861Z,7.3
2022-09-23T02:19:28.044Z,5.9
2022-09-23T02:25:12.415Z,6.8
2022-09-23T02:31:00.987Z,6.9
2022-09-23T02:36:48.282Z,5.1
2022-09-23T02:42:35.261Z,6.2
2022-09-23T02:48:23.378Z,6
2022-09-23T02:54:07.899Z,4.9
2022-09-23T02:59:51.064Z,5.5
2022-09-23T03:05:37.926Z,5.1
2022-09-23T03:11:21.355Z,5.4
2022-09-23T03:17:06.717Z,5.4
2022-09-23T03:22:52.347Z,4.7
2022-09-23T03:28:38.015Z,5.8
2022-09-23T03:34:25.095Z,7.4
2022-09-23T03:40:11.866Z,6.7
2022-09-23T03:45:55.820Z,6.4
2022-09-23T03:51:45.665Z,6
2022-09-23T03:57:28.705Z,6.2
2022-09-23T04:03:14.488Z,4.4
2022-09-23T04:08:58.857Z,5.4
2022-09-23T04:14:41.913Z,6.8
2022-09-23T04:20:25.349Z,5.7
2022-09-23T04:26:09.003Z,6.2
2022-09-23T04:31:52.801Z,6.2
2022-09-23T04:37:36.223Z,5.5
2022-09-23T04:43:19.717Z,5.8
2022-09-23T04:49:03.140Z,5.5
2022-09-23T04:54:46.720Z,4.8
2022-09-23T05:00:30.502Z,4.9
2022-09-23T05:06:15.534Z,5.6
2022-09-23T05:11:58.550Z,6.8
2022-09-23T05:17:41.670Z,6.8
2022-09-23T05:23:25.718Z,6.1
2022-09-23T05:29:09.171Z,5.1
2022-09-23T05:34:52.412Z,5.5
2022-09-23T05:40:35.897Z,5.4
2022-09-23T05:46:20.816Z,6.1
2022-09-23T05:52:04.430Z,4.9
2022-09-23T05:57:47.889Z,4
2022-09-23T06:03:31.184Z,6.1
2022-09-23T06:09:15.622Z,8.5
2022-09-23T06:14:58.856Z,6.3
2022-09-23T06:20:42.059Z,4.9
2022-09-23T06:26:25.490Z,6.2
2022-09-23T06:32:08.838Z,5.7
2022-09-23T06:37:52.485Z,4.7
2022-09-23T06:43:35.654Z,5.3
2022-09-23T06:49:19.043Z,5.9
2022-09-23T06:55:02.246Z,5.5
2022-09-23T07:00:45.334Z,6.1
2022-09-23T07:06:28.724Z,5.9
2022-09-23T07:12:11.993Z,4.7
2022-09-23T07:17:55.190Z,4.9
2022-09-23T07:23:38.414Z,4.3
2022-09-23T07:29:22.002Z,4.2
2022-09-23T07:35:05.181Z,4.9
2022-09-23T07:40:49.001Z,4.5
2022-09-23T07:46:33.747Z,5
2022-09-23T07:52:17.009Z,7.1
2022-09-23T07:58:00.290Z,7.5
2022-09-23T08:03:43.422Z,8.2
2022-09-23T08:09:27.262Z,8.4
2022-09-23T08:15:11.443Z,9.1
2022-09-23T08:20:54.835Z,8.9
2022-09-23T08:26:38.517Z,8.7
2022-09-23T08:32:21.997Z,9.5
2022-09-23T08:38:05.450Z,9.5
2022-09-23T08:43:52.042Z,10.3
2022-09-23T08:49:38.156Z,10.9
2022-09-23T08:55:21.772Z,9.3
2022-09-23T09:01:10.539Z,10.3
2022-09-23T09:07:35.032Z,11.4
2022-09-23T09:13:03.238Z,9.1
2022-09-23T09:18:51.299Z,8.3
2022-09-23T09:24:36.441Z,8.8
2022-09-23T09:30:21.176Z,7.2
2022-09-23T09:36:09.386Z,9.4
2022-09-23T09:41:53.688Z,8.4
2022-09-23T09:47:42.439Z,7.3
2022-09-23T09:53:27.991Z,11.9
2022-09-23T09:59:13.886Z,6.2
2022-09-23T10:05:02.115Z,6.7
2022-09-23T10:10:50.167Z,7.5
2022-09-23T10:16:35.029Z,6.4
2022-09-23T10:22:22.904Z,7
2022-09-23T10:28:11.322Z,6.8
2022-09-23T10:33:55.479Z,5.5
2022-09-23T10:39:38.830Z,6.1
2022-09-23T10:45:28.072Z,6
2022-09-23T10:51:15.869Z,5.5
2022-09-23T10:57:04.238Z,6.1
2022-09-23T11:02:55.780Z,5.5
2022-09-23T11:08:45.852Z,4.1
2022-09-23T11:14:35.411Z,5.6
2022-09-23T11:20:29.256Z,6.2
2022-09-23T11:26:19.746Z,4.2
2022-09-23T11:32:10.301Z,4.8
2022-09-23T11:37:58.306Z,5.8
2022-09-23T11:43:43.454Z,4.9
2022-09-23T11:49:28.958Z,5.5
2022-09-23T11:55:24.770Z,4.5
2022-09-23T12:01:11.904Z,4.6
2022-09-23T12:07:06.526Z,4.3
2022-09-23T12:12:53.872Z,3.8
2022-09-23T12:18:44.346Z,3.3
2022-09-23T12:24:38.608Z,4.1
2022-09-23T12:30:24.550Z,4.4
2022-09-23T12:36:11.488Z,3.7
2022-09-23T12:41:58.851Z,3.9
2022-09-23T12:47:44.518Z,4.1
2022-09-23T12:53:47.467Z,4.4
2022-09-23T12:59:31.918Z,5.1
2022-09-23T13:05:21.394Z,3.4
2022-09-23T13:11:08.374Z,4.2
2022-09-23T13:16:52.196Z,3.8
2022-09-23T13:22:53.208Z,4.5
2022-09-23T13:28:44.253Z,4.2
2022-09-23T13:34:31.267Z,3.1
2022-09-23T13:40:20.345Z,3.4
2022-09-23T13:46:05.095Z,4.3
2022-09-23T13:51:48.291Z,4.9
2022-09-23T13:57:32.496Z,7.7
2022-09-23T14:03:26.540Z,4.9
2022-09-23T14:09:09.865Z,5.9
2022-09-23T14:14:54.821Z,5.4
2022-09-23T14:20:43.097Z,4.6
2022-09-23T14:26:26.548Z,4.5
2022-09-23T14:32:14.097Z,4.8
2022-09-23T14:37:58.734Z,4.5
2022-09-23T14:43:42.147Z,5.8
2022-09-23T14:49:26.001Z,3.5
2022-09-23T14:55:17.716Z,4
2022-09-23T15:01:02.568Z,4.5
2022-09-23T15:06:48.171Z,4.1
2022-09-23T15:12:32.474Z,4.7
2022-09-23T15:18:19.538Z,5.3
2022-09-23T15:24:03.124Z,2.9
2022-09-23T15:29:46.569Z,2.8
2022-09-23T15:35:32.557Z,4.9
2022-09-23T15:41:16.262Z,3.8
2022-09-23T15:47:01.048Z,3.9
2022-09-23T15:52:44.392Z,4.1
2022-09-23T15:58:29.147Z,3.5
2022-09-23T16:04:12.664Z,3.6
2022-09-23T16:09:55.915Z,3.2
2022-09-23T16:15:39.538Z,3.2
2022-09-23T16:21:23.619Z,3
2022-09-23T16:27:09.136Z,5.1
2022-09-23T16:32:52.299Z,4.5
2022-09-23T16:38:35.428Z,3.3
2022-09-23T16:44:18.567Z,3.4
2022-09-23T16:50:02.173Z,4.5
2022-09-23T16:55:45.719Z,4.5
2022-09-23T17:01:30.218Z,4.6
2022-09-23T17:07:13.500Z,3.7
2022-09-23T17:12:56.719Z,5.3
2022-09-23T17:18:39.984Z,5
2022-09-23T17:24:23.411Z,4.1
2022-09-23T17:30:07.301Z,3
2022-09-23T17:35:50.426Z,3.7
2022-09-23T17:41:33.679Z,3.3
2022-09-23T17:47:16.891Z,4.7
2022-09-23T17:53:00.314Z,4.8
2022-09-23T17:58:43.570Z,3.7
2022-09-23T18:04:26.908Z,4.2
2022-09-23T18:10:10.862Z,5.6
2022-09-23T18:15:54.287Z,5.2
2022-09-23T18:21:38.320Z,7.6
2022-09-23T18:27:21.526Z,6.2
2022-09-23T18:33:05.668Z,5.8
2022-09-23T18:38:49.355Z,4.4
2022-09-23T18:44:32.609Z,5.5
2022-09-23T18:50:16.083Z,4.7
2022-09-23T18:56:00.068Z,6.2
2022-09-23T19:01:43.954Z,5.9
2022-09-23T19:07:27.251Z,5.7
2022-09-23T19:13:10.566Z,5
2022-09-23T19:18:54.885Z,6.1
2022-09-23T19:24:37.914Z,6
2022-09-23T19:30:22.236Z,5.7
2022-09-23T19:36:05.983Z,5.4
2022-09-23T19:41:49.520Z,5.9
2022-09-23T19:47:32.653Z,8.4
2022-09-23T19:53:16.442Z,7.8
2022-09-23T19:58:59.564Z,8.4
2022-09-23T20:04:42.417Z,9
2022-09-23T20:10:25.819Z,10.4
2022-09-23T20:16:09.474Z,7.5
2022-09-23T20:21:52.766Z,8.5
2022-09-23T20:27:36.058Z,7.9
2022-09-23T20:33:19.318Z,9.6
2022-09-23T20:39:03.195Z,8.2
2022-09-23T20:44:46.979Z,9
2022-09-23T20:50:30.531Z,8.8
2022-09-23T20:56:13.982Z,8.2
2022-09-23T21:01:57.587Z,7.9
2022-09-23T21:07:40.882Z,8.7
2022-09-23T21:13:24.286Z,10.6
2022-09-23T21:19:07.496Z,10.6
2022-09-23T21:30:55.179Z,9.8
2022-09-23T21:36:39.343Z,8.8
2022-09-23T21:42:28.643Z,10
2022-09-23T21:48:11.945Z,8.4
2022-09-23T21:53:55.931Z,8.4
2022-09-23T21:59:39.183Z,7.8
2022-09-23T22:05:22.424Z,8
2022-09-23T22:11:06.101Z,8.3
2022-09-23T22:16:49.677Z,8.1
2022-09-23T22:22:32.882Z,7.8
2022-09-23T22:28:16.022Z,7.3
2022-09-23T22:33:59.175Z,8.6
2022-09-23T22:39:42.750Z,8.1
2022-09-23T22:45:26.140Z,8.1
2022-09-23T22:51:10.782Z,8.2
2022-09-23T22:56:54.030Z,6.8
2022-09-23T23:02:37.356Z,7.2
2022-09-23T23:08:21.196Z,7.8
2022-09-23T23:14:04.808Z,7.7
2022-09-23T23:19:48.081Z,9.1
2022-09-23T23:25:31.445Z,7.4
2022-09-23T23:31:15.696Z,6.8
2022-09-23T23:36:59.166Z,5.8
2022-09-23T23:42:42.604Z,9.1
2022-09-23T23:48:25.739Z,7.2
2022-09-23T23:54:09.372Z,8.2
2022-09-23T23:59:52.624Z,7.4
